sensor_id;sensor_type;location;lat;lon;timestamp;P1;durP1;ratioP1;P2;durP2;ratioP2
71856;SDS011;63344;46.980;28.882;2023-04-23T00:01:34;16.95;;;9.13;;
71856;SDS011;63344;46.980;28.882;2023-04-23T00:04:07;17.95;;;9.25;;
71856;SDS011;63344;46.980;28.882;2023-04-23T00:06:35;20.92;;;8.57;;
71856;SDS011;63344;46.980;28.882;2023-04-23T00:09:03;14.98;;;8.77;;
71856;SDS011;63344;46.980;28.882;2023-04-23T00:11:32;18.20;;;8.25;;
71856;SDS011;63344;46.980;28.882;2023-04-23T00:14:00;15.52;;;8.13;;
71856;SDS011;63344;46.980;28.882;2023-04-23T00:16:28;19.85;;;8.80;;
71856;SDS011;63344;46.980;28.882;2023-04-23T00:18:55;19.45;;;9.20;;
71856;SDS011;63344;46.980;28.882;2023-04-23T00:21:22;25.92;;;14.38;;
71856;SDS011;63344;46.980;28.882;2023-04-23T00:23:50;18.65;;;10.15;;
71856;SDS011;63344;46.980;28.882;2023-04-23T00:26:17;19.70;;;9.43;;
71856;SDS011;63344;46.980;28.882;2023-04-23T00:28:44;21.00;;;8.23;;
71856;SDS011;63344;46.980;28.882;2023-04-23T00:31:11;14.55;;;8.45;;
71856;SDS011;63344;46.980;28.882;2023-04-23T00:33:38;21.58;;;10.15;;
71856;SDS011;63344;46.980;28.882;2023-04-23T00:36:06;19.17;;;8.93;;
71856;SDS011;63344;46.980;28.882;2023-04-23T00:38:34;16.42;;;8.77;;
71856;SDS011;63344;46.980;28.882;2023-04-23T00:41:01;20.48;;;8.57;;
71856;SDS011;63344;46.980;28.882;2023-04-23T00:43:29;15.48;;;8.30;;
71856;SDS011;63344;46.980;28.882;2023-04-23T00:45:58;17.83;;;8.90;;
71856;SDS011;63344;46.980;28.882;2023-04-23T00:48:26;16.45;;;9.27;;
71856;SDS011;63344;46.980;28.882;2023-04-23T00:50:58;18.85;;;8.98;;
71856;SDS011;63344;46.980;28.882;2023-04-23T00:53:26;18.88;;;9.73;;
71856;SDS011;63344;46.980;28.882;2023-04-23T00:55:53;18.85;;;10.38;;
71856;SDS011;63344;46.980;28.882;2023-04-23T00:58:22;21.15;;;10.13;;
71856;SDS011;63344;46.980;28.882;2023-04-23T01:00:49;19.13;;;9.20;;
71856;SDS011;63344;46.980;28.882;2023-04-23T01:03:18;23.52;;;9.70;;
71856;SDS011;63344;46.980;28.882;2023-04-23T01:05:48;36.78;;;12.23;;
71856;SDS011;63344;46.980;28.882;2023-04-23T01:08:16;38.17;;;10.80;;
71856;SDS011;63344;46.980;28.882;2023-04-23T01:10:45;24.10;;;9.90;;
71856;SDS011;63344;46.980;28.882;2023-04-23T01:13:13;27.35;;;12.32;;
71856;SDS011;63344;46.980;28.882;2023-04-23T01:15:42;21.40;;;10.57;;
71856;SDS011;63344;46.980;28.882;2023-04-23T01:18:10;23.35;;;10.20;;
71856;SDS011;63344;46.980;28.882;2023-04-23T01:20:39;25.65;;;12.27;;
71856;SDS011;63344;46.980;28.882;2023-04-23T01:23:06;16.80;;;8.82;;
71856;SDS011;63344;46.980;28.882;2023-04-23T01:25:34;18.52;;;8.77;;
71856;SDS011;63344;46.980;28.882;2023-04-23T01:28:01;17.63;;;9.13;;
71856;SDS011;63344;46.980;28.882;2023-04-23T01:30:29;19.73;;;9.10;;
71856;SDS011;63344;46.980;28.882;2023-04-23T01:32:56;17.23;;;9.15;;
71856;SDS011;63344;46.980;28.882;2023-04-23T01:35:24;22.15;;;10.25;;
71856;SDS011;63344;46.980;28.882;2023-04-23T01:37:52;20.02;;;9.77;;
71856;SDS011;63344;46.980;28.882;2023-04-23T01:40:20;19.52;;;9.07;;
71856;SDS011;63344;46.980;28.882;2023-04-23T01:42:48;19.42;;;10.82;;
71856;SDS011;63344;46.980;28.882;2023-04-23T01:45:15;19.38;;;8.27;;
71856;SDS011;63344;46.980;28.882;2023-04-23T01:47:45;26.17;;;13.02;;
71856;SDS011;63344;46.980;28.882;2023-04-23T01:50:16;20.17;;;8.90;;
71856;SDS011;63344;46.980;28.882;2023-04-23T01:52:43;16.05;;;9.32;;
71856;SDS011;63344;46.980;28.882;2023-04-23T01:55:11;19.02;;;10.32;;
71856;SDS011;63344;46.980;28.882;2023-04-23T01:57:39;20.75;;;9.23;;
71856;SDS011;63344;46.980;28.882;2023-04-23T02:00:08;16.58;;;8.02;;
71856;SDS011;63344;46.980;28.882;2023-04-23T02:02:41;20.80;;;8.65;;
71856;SDS011;63344;46.980;28.882;2023-04-23T02:05:11;18.98;;;7.95;;
71856;SDS011;63344;46.980;28.882;2023-04-23T02:07:44;21.17;;;10.75;;
71856;SDS011;63344;46.980;28.882;2023-04-23T02:10:16;17.75;;;9.27;;
71856;SDS011;63344;46.980;28.882;2023-04-23T02:12:44;19.17;;;9.63;;
71856;SDS011;63344;46.980;28.882;2023-04-23T02:15:12;18.40;;;9.68;;
71856;SDS011;63344;46.980;28.882;2023-04-23T02:17:40;20.55;;;9.82;;
71856;SDS011;63344;46.980;28.882;2023-04-23T02:20:08;16.92;;;8.52;;
71856;SDS011;63344;46.980;28.882;2023-04-23T02:22:38;21.38;;;8.98;;
71856;SDS011;63344;46.980;28.882;2023-04-23T02:25:07;19.35;;;9.00;;
71856;SDS011;63344;46.980;28.882;2023-04-23T02:27:35;21.30;;;9.60;;
71856;SDS011;63344;46.980;28.882;2023-04-23T02:30:03;22.90;;;11.38;;
71856;SDS011;63344;46.980;28.882;2023-04-23T02:32:30;20.50;;;11.65;;
71856;SDS011;63344;46.980;28.882;2023-04-23T02:34:58;18.77;;;10.40;;
71856;SDS011;63344;46.980;28.882;2023-04-23T02:37:25;18.80;;;11.10;;
71856;SDS011;63344;46.980;28.882;2023-04-23T02:39:53;22.75;;;11.30;;
71856;SDS011;63344;46.980;28.882;2023-04-23T02:42:20;22.40;;;10.82;;
71856;SDS011;63344;46.980;28.882;2023-04-23T02:44:47;18.63;;;9.73;;
71856;SDS011;63344;46.980;28.882;2023-04-23T02:47:14;20.00;;;11.15;;
71856;SDS011;63344;46.980;28.882;2023-04-23T02:49:42;19.40;;;11.18;;
71856;SDS011;63344;46.980;28.882;2023-04-23T02:52:09;21.25;;;11.75;;
71856;SDS011;63344;46.980;28.882;2023-04-23T02:54:36;21.42;;;10.23;;
71856;SDS011;63344;46.980;28.882;2023-04-23T02:57:04;22.02;;;9.25;;
71856;SDS011;63344;46.980;28.882;2023-04-23T02:59:32;21.75;;;10.18;;
71856;SDS011;63344;46.980;28.882;2023-04-23T03:01:59;25.77;;;12.60;;
71856;SDS011;63344;46.980;28.882;2023-04-23T03:04:26;26.75;;;11.20;;
71856;SDS011;63344;46.980;28.882;2023-04-23T03:06:55;22.77;;;11.18;;
71856;SDS011;63344;46.980;28.882;2023-04-23T03:09:22;26.80;;;12.68;;
71856;SDS011;63344;46.980;28.882;2023-04-23T03:11:50;24.17;;;11.50;;
71856;SDS011;63344;46.980;28.882;2023-04-23T03:14:19;18.55;;;10.95;;
71856;SDS011;63344;46.980;28.882;2023-04-23T03:16:46;17.88;;;10.15;;
71856;SDS011;63344;46.980;28.882;2023-04-23T03:19:13;27.15;;;11.27;;
71856;SDS011;63344;46.980;28.882;2023-04-23T03:21:41;23.05;;;11.88;;
71856;SDS011;63344;46.980;28.882;2023-04-23T03:24:09;22.88;;;12.50;;
71856;SDS011;63344;46.980;28.882;2023-04-23T03:26:38;29.73;;;13.25;;
71856;SDS011;63344;46.980;28.882;2023-04-23T03:29:06;18.67;;;11.10;;
71856;SDS011;63344;46.980;28.882;2023-04-23T03:31:33;20.08;;;10.32;;
71856;SDS011;63344;46.980;28.882;2023-04-23T03:34:00;21.38;;;9.98;;
71856;SDS011;63344;46.980;28.882;2023-04-23T03:36:28;22.25;;;10.88;;
71856;SDS011;63344;46.980;28.882;2023-04-23T03:38:56;18.70;;;10.73;;
71856;SDS011;63344;46.980;28.882;2023-04-23T03:41:23;23.42;;;11.95;;
71856;SDS011;63344;46.980;28.882;2023-04-23T03:43:50;23.48;;;11.18;;
71856;SDS011;63344;46.980;28.882;2023-04-23T03:46:17;19.10;;;10.57;;
71856;SDS011;63344;46.980;28.882;2023-04-23T03:48:44;18.92;;;9.85;;
71856;SDS011;63344;46.980;28.882;2023-04-23T03:51:12;21.25;;;10.05;;
71856;SDS011;63344;46.980;28.882;2023-04-23T03:53:39;19.15;;;10.27;;
71856;SDS011;63344;46.980;28.882;2023-04-23T03:56:06;22.40;;;10.30;;
71856;SDS011;63344;46.980;28.882;2023-04-23T03:58:33;20.38;;;10.20;;
71856;SDS011;63344;46.980;28.882;2023-04-23T04:01:01;20.92;;;9.75;;
71856;SDS011;63344;46.980;28.882;2023-04-23T04:03:28;18.98;;;9.40;;
71856;SDS011;63344;46.980;28.882;2023-04-23T04:05:55;19.88;;;9.23;;
71856;SDS011;63344;46.980;28.882;2023-04-23T04:08:24;21.88;;;11.13;;
71856;SDS011;63344;46.980;28.882;2023-04-23T04:10:52;18.80;;;9.40;;
71856;SDS011;63344;46.980;28.882;2023-04-23T04:13:20;21.23;;;11.07;;
71856;SDS011;63344;46.980;28.882;2023-04-23T04:15:47;23.58;;;11.70;;
71856;SDS011;63344;46.980;28.882;2023-04-23T04:18:14;24.20;;;10.98;;
71856;SDS011;63344;46.980;28.882;2023-04-23T04:20:41;24.08;;;11.95;;
71856;SDS011;63344;46.980;28.882;2023-04-23T04:23:12;18.15;;;10.15;;
71856;SDS011;63344;46.980;28.882;2023-04-23T04:25:41;24.05;;;11.05;;
71856;SDS011;63344;46.980;28.882;2023-04-23T04:28:13;19.23;;;11.50;;
71856;SDS011;63344;46.980;28.882;2023-04-23T04:30:46;25.55;;;13.10;;
71856;SDS011;63344;46.980;28.882;2023-04-23T04:33:17;27.77;;;13.02;;
71856;SDS011;63344;46.980;28.882;2023-04-23T04:35:46;22.77;;;10.38;;
71856;SDS011;63344;46.980;28.882;2023-04-23T04:38:15;17.73;;;10.05;;
71856;SDS011;63344;46.980;28.882;2023-04-23T04:40:42;21.27;;;11.48;;
71856;SDS011;63344;46.980;28.882;2023-04-23T04:43:10;20.48;;;11.05;;
71856;SDS011;63344;46.980;28.882;2023-04-23T04:45:37;21.30;;;10.75;;
71856;SDS011;63344;46.980;28.882;2023-04-23T04:48:05;22.45;;;12.07;;
71856;SDS011;63344;46.980;28.882;2023-04-23T04:50:31;24.88;;;12.13;;
71856;SDS011;63344;46.980;28.882;2023-04-23T04:52:59;23.02;;;12.25;;
71856;SDS011;63344;46.980;28.882;2023-04-23T04:55:26;23.90;;;11.77;;
71856;SDS011;63344;46.980;28.882;2023-04-23T04:57:53;24.35;;;12.23;;
71856;SDS011;63344;46.980;28.882;2023-04-23T05:00:24;24.63;;;12.82;;
71856;SDS011;63344;46.980;28.882;2023-04-23T05:02:58;22.85;;;11.13;;
71856;SDS011;63344;46.980;28.882;2023-04-23T05:05:26;18.75;;;10.35;;
71856;SDS011;63344;46.980;28.882;2023-04-23T05:07:53;25.13;;;11.55;;
71856;SDS011;63344;46.980;28.882;2023-04-23T05:10:21;20.95;;;11.30;;
71856;SDS011;63344;46.980;28.882;2023-04-23T05:12:48;19.15;;;11.98;;
71856;SDS011;63344;46.980;28.882;2023-04-23T05:17:44;26.52;;;12.05;;
71856;SDS011;63344;46.980;28.882;2023-04-23T05:20:12;20.52;;;11.80;;
71856;SDS011;63344;46.980;28.882;2023-04-23T05:22:40;26.65;;;12.75;;
71856;SDS011;63344;46.980;28.882;2023-04-23T05:25:09;20.27;;;11.85;;
71856;SDS011;63344;46.980;28.882;2023-04-23T05:27:40;23.48;;;11.27;;
71856;SDS011;63344;46.980;28.882;2023-04-23T05:30:07;21.02;;;12.45;;
71856;SDS011;63344;46.980;28.882;2023-04-23T05:32:37;22.70;;;12.05;;
71856;SDS011;63344;46.980;28.882;2023-04-23T05:35:05;21.23;;;12.30;;
71856;SDS011;63344;46.980;28.882;2023-04-23T05:37:33;24.92;;;11.82;;
71856;SDS011;63344;46.980;28.882;2023-04-23T05:40:01;17.45;;;11.13;;
71856;SDS011;63344;46.980;28.882;2023-04-23T05:42:28;20.65;;;11.35;;
71856;SDS011;63344;46.980;28.882;2023-04-23T05:44:56;24.58;;;11.88;;
71856;SDS011;63344;46.980;28.882;2023-04-23T05:47:23;26.58;;;12.10;;
71856;SDS011;63344;46.980;28.882;2023-04-23T05:49:51;26.73;;;11.88;;
71856;SDS011;63344;46.980;28.882;2023-04-23T05:52:18;25.45;;;12.70;;
71856;SDS011;63344;46.980;28.882;2023-04-23T05:54:45;21.92;;;11.50;;
71856;SDS011;63344;46.980;28.882;2023-04-23T05:57:13;20.73;;;11.95;;
71856;SDS011;63344;46.980;28.882;2023-04-23T05:59:40;24.95;;;10.82;;
71856;SDS011;63344;46.980;28.882;2023-04-23T06:02:08;17.63;;;10.55;;
71856;SDS011;63344;46.980;28.882;2023-04-23T06:04:36;24.23;;;11.45;;
71856;SDS011;63344;46.980;28.882;2023-04-23T06:07:05;26.60;;;13.65;;
71856;SDS011;63344;46.980;28.882;2023-04-23T06:09:32;22.95;;;11.60;;
71856;SDS011;63344;46.980;28.882;2023-04-23T06:12:00;17.42;;;11.48;;
71856;SDS011;63344;46.980;28.882;2023-04-23T06:16:56;29.13;;;12.85;;
71856;SDS011;63344;46.980;28.882;2023-04-23T06:19:25;19.30;;;9.82;;
71856;SDS011;63344;46.980;28.882;2023-04-23T06:21:53;18.40;;;9.50;;
71856;SDS011;63344;46.980;28.882;2023-04-23T06:24:20;18.45;;;10.25;;
71856;SDS011;63344;46.980;28.882;2023-04-23T06:26:48;15.15;;;7.13;;
71856;SDS011;63344;46.980;28.882;2023-04-23T06:29:15;15.80;;;7.72;;
71856;SDS011;63344;46.980;28.882;2023-04-23T06:31:42;17.20;;;8.88;;
71856;SDS011;63344;46.980;28.882;2023-04-23T06:34:10;16.20;;;8.60;;
71856;SDS011;63344;46.980;28.882;2023-04-23T06:36:37;12.77;;;7.75;;
71856;SDS011;63344;46.980;28.882;2023-04-23T06:39:04;16.52;;;8.90;;
71856;SDS011;63344;46.980;28.882;2023-04-23T06:41:32;14.45;;;7.82;;
71856;SDS011;63344;46.980;28.882;2023-04-23T06:44:01;14.32;;;7.65;;
71856;SDS011;63344;46.980;28.882;2023-04-23T06:46:38;13.77;;;8.05;;
71856;SDS011;63344;46.980;28.882;2023-04-23T06:49:10;13.90;;;7.50;;
71856;SDS011;63344;46.980;28.882;2023-04-23T06:51:38;12.68;;;7.45;;
71856;SDS011;63344;46.980;28.882;2023-04-23T06:54:05;11.40;;;6.78;;
71856;SDS011;63344;46.980;28.882;2023-04-23T06:56:32;12.48;;;7.88;;
71856;SDS011;63344;46.980;28.882;2023-04-23T06:58:59;15.35;;;7.40;;
71856;SDS011;63344;46.980;28.882;2023-04-23T07:01:28;11.05;;;6.97;;
71856;SDS011;63344;46.980;28.882;2023-04-23T07:03:57;12.57;;;6.90;;
71856;SDS011;63344;46.980;28.882;2023-04-23T07:06:26;16.33;;;6.47;;
71856;SDS011;63344;46.980;28.882;2023-04-23T07:08:53;11.15;;;7.25;;
71856;SDS011;63344;46.980;28.882;2023-04-23T07:11:21;13.23;;;7.15;;
71856;SDS011;63344;46.980;28.882;2023-04-23T07:13:48;11.13;;;6.35;;
71856;SDS011;63344;46.980;28.882;2023-04-23T07:16:16;12.90;;;6.40;;
71856;SDS011;63344;46.980;28.882;2023-04-23T07:18:48;11.52;;;6.00;;
71856;SDS011;63344;46.980;28.882;2023-04-23T07:21:17;11.25;;;6.90;;
71856;SDS011;63344;46.980;28.882;2023-04-23T07:23:44;11.38;;;7.47;;
71856;SDS011;63344;46.980;28.882;2023-04-23T07:26:12;11.52;;;6.30;;
71856;SDS011;63344;46.980;28.882;2023-04-23T07:28:39;14.32;;;7.20;;
71856;SDS011;63344;46.980;28.882;2023-04-23T07:31:07;10.63;;;7.03;;
71856;SDS011;63344;46.980;28.882;2023-04-23T07:33:34;11.63;;;7.07;;
71856;SDS011;63344;46.980;28.882;2023-04-23T07:36:02;8.40;;;5.45;;
71856;SDS011;63344;46.980;28.882;2023-04-23T07:38:30;12.70;;;6.30;;
71856;SDS011;63344;46.980;28.882;2023-04-23T07:40:57;10.77;;;5.93;;
71856;SDS011;63344;46.980;28.882;2023-04-23T07:43:25;11.35;;;7.68;;
71856;SDS011;63344;46.980;28.882;2023-04-23T07:45:56;15.70;;;8.23;;
71856;SDS011;63344;46.980;28.882;2023-04-23T07:48:25;13.27;;;6.80;;
71856;SDS011;63344;46.980;28.882;2023-04-23T07:50:53;13.38;;;8.23;;
71856;SDS011;63344;46.980;28.882;2023-04-23T07:53:20;12.68;;;6.80;;
71856;SDS011;63344;46.980;28.882;2023-04-23T07:55:47;10.38;;;5.93;;
71856;SDS011;63344;46.980;28.882;2023-04-23T07:58:14;11.85;;;7.35;;
71856;SDS011;63344;46.980;28.882;2023-04-23T08:00:43;13.38;;;6.97;;
71856;SDS011;63344;46.980;28.882;2023-04-23T08:03:10;12.30;;;7.63;;
71856;SDS011;63344;46.980;28.882;2023-04-23T08:05:37;12.13;;;7.53;;
71856;SDS011;63344;46.980;28.882;2023-04-23T08:08:07;11.88;;;6.93;;
71856;SDS011;63344;46.980;28.882;2023-04-23T08:10:35;11.73;;;7.10;;
71856;SDS011;63344;46.980;28.882;2023-04-23T08:13:08;11.25;;;7.18;;
71856;SDS011;63344;46.980;28.882;2023-04-23T08:15:37;10.30;;;7.25;;
71856;SDS011;63344;46.980;28.882;2023-04-23T08:18:04;13.65;;;7.35;;
71856;SDS011;63344;46.980;28.882;2023-04-23T08:20:34;12.32;;;7.28;;
71856;SDS011;63344;46.980;28.882;2023-04-23T08:23:01;12.43;;;6.88;;
71856;SDS011;63344;46.980;28.882;2023-04-23T08:25:36;9.63;;;6.72;;
71856;SDS011;63344;46.980;28.882;2023-04-23T08:28:05;10.77;;;6.68;;
71856;SDS011;63344;46.980;28.882;2023-04-23T08:33:04;6.85;;;4.70;;
71856;SDS011;63344;46.980;28.882;2023-04-23T08:35:31;10.52;;;6.68;;
71856;SDS011;63344;46.980;28.882;2023-04-23T08:37:58;10.40;;;6.93;;
71856;SDS011;63344;46.980;28.882;2023-04-23T08:40:29;11.82;;;6.43;;
71856;SDS011;63344;46.980;28.882;2023-04-23T08:43:18;10.20;;;6.60;;
71856;SDS011;63344;46.980;28.882;2023-04-23T08:45:56;8.00;;;5.82;;
71856;SDS011;63344;46.980;28.882;2023-04-23T08:51:00;11.43;;;7.25;;
71856;SDS011;63344;46.980;28.882;2023-04-23T08:53:28;10.68;;;6.88;;
71856;SDS011;63344;46.980;28.882;2023-04-23T08:55:58;10.13;;;4.97;;
71856;SDS011;63344;46.980;28.882;2023-04-23T08:58:26;6.13;;;4.80;;
71856;SDS011;63344;46.980;28.882;2023-04-23T09:00:54;6.68;;;4.82;;
71856;SDS011;63344;46.980;28.882;2023-04-23T09:03:24;5.85;;;3.90;;
71856;SDS011;63344;46.980;28.882;2023-04-23T09:05:53;5.07;;;3.80;;
71856;SDS011;63344;46.980;28.882;2023-04-23T09:08:22;7.72;;;5.47;;
71856;SDS011;63344;46.980;28.882;2023-04-23T09:10:50;7.50;;;5.80;;
71856;SDS011;63344;46.980;28.882;2023-04-23T09:13:18;10.05;;;6.15;;
71856;SDS011;63344;46.980;28.882;2023-04-23T09:15:50;7.50;;;4.57;;
71856;SDS011;63344;46.980;28.882;2023-04-23T09:18:17;8.93;;;5.80;;
71856;SDS011;63344;46.980;28.882;2023-04-23T09:20:46;7.72;;;5.43;;
71856;SDS011;63344;46.980;28.882;2023-04-23T09:23:15;4.97;;;3.50;;
71856;SDS011;63344;46.980;28.882;2023-04-23T09:26:06;6.53;;;3.35;;
71856;SDS011;63344;46.980;28.882;2023-04-23T09:28:49;12.98;;;4.75;;
71856;SDS011;63344;46.980;28.882;2023-04-23T09:31:20;5.68;;;4.30;;
71856;SDS011;63344;46.980;28.882;2023-04-23T09:33:52;3.83;;;3.22;;
71856;SDS011;63344;46.980;28.882;2023-04-23T09:36:20;5.55;;;3.72;;
71856;SDS011;63344;46.980;28.882;2023-04-23T09:38:54;7.95;;;4.45;;
71856;SDS011;63344;46.980;28.882;2023-04-23T09:41:26;3.90;;;3.10;;
71856;SDS011;63344;46.980;28.882;2023-04-23T09:44:00;5.13;;;3.90;;
71856;SDS011;63344;46.980;28.882;2023-04-23T09:46:39;9.73;;;5.60;;
71856;SDS011;63344;46.980;28.882;2023-04-23T09:49:25;6.53;;;4.50;;
71856;SDS011;63344;46.980;28.882;2023-04-23T09:51:52;3.55;;;3.22;;
71856;SDS011;63344;46.980;28.882;2023-04-23T09:54:20;6.55;;;3.92;;
71856;SDS011;63344;46.980;28.882;2023-04-23T09:56:53;6.20;;;4.57;;
71856;SDS011;63344;46.980;28.882;2023-04-23T09:59:28;5.55;;;4.05;;
71856;SDS011;63344;46.980;28.882;2023-04-23T10:02:14;6.45;;;4.57;;
71856;SDS011;63344;46.980;28.882;2023-04-23T10:04:41;4.72;;;3.17;;
71856;SDS011;63344;46.980;28.882;2023-04-23T10:07:09;6.85;;;3.92;;
71856;SDS011;63344;46.980;28.882;2023-04-23T10:09:46;4.43;;;3.65;;
71856;SDS011;63344;46.980;28.882;2023-04-23T10:12:13;6.10;;;3.67;;
71856;SDS011;63344;46.980;28.882;2023-04-23T10:15:04;5.72;;;3.50;;
71856;SDS011;63344;46.980;28.882;2023-04-23T10:17:34;5.22;;;3.85;;
71856;SDS011;63344;46.980;28.882;2023-04-23T10:20:02;9.88;;;4.20;;
71856;SDS011;63344;46.980;28.882;2023-04-23T10:22:30;5.90;;;3.40;;
71856;SDS011;63344;46.980;28.882;2023-04-23T10:24:59;4.18;;;3.05;;
71856;SDS011;63344;46.980;28.882;2023-04-23T10:27:38;5.95;;;4.57;;
71856;SDS011;63344;46.980;28.882;2023-04-23T10:30:20;5.65;;;4.10;;
71856;SDS011;63344;46.980;28.882;2023-04-23T10:32:48;5.10;;;2.92;;
71856;SDS011;63344;46.980;28.882;2023-04-23T10:35:17;5.07;;;2.80;;
71856;SDS011;63344;46.980;28.882;2023-04-23T10:37:44;4.28;;;2.80;;
71856;SDS011;63344;46.980;28.882;2023-04-23T10:40:22;5.40;;;4.20;;
71856;SDS011;63344;46.980;28.882;2023-04-23T10:42:58;5.13;;;3.78;;
71856;SDS011;63344;46.980;28.882;2023-04-23T10:45:29;3.38;;;2.50;;
71856;SDS011;63344;46.980;28.882;2023-04-23T10:47:57;2.78;;;2.17;;
71856;SDS011;63344;46.980;28.882;2023-04-23T10:52:54;3.67;;;3.03;;
71856;SDS011;63344;46.980;28.882;2023-04-23T10:55:29;4.97;;;2.58;;
71856;SDS011;63344;46.980;28.882;2023-04-23T10:58:03;4.30;;;2.42;;
71856;SDS011;63344;46.980;28.882;2023-04-23T11:06:01;5.38;;;2.72;;
71856;SDS011;63344;46.980;28.882;2023-04-23T11:08:29;5.53;;;2.75;;
71856;SDS011;63344;46.980;28.882;2023-04-23T11:11:00;3.40;;;2.13;;
71856;SDS011;63344;46.980;28.882;2023-04-23T11:13:33;3.40;;;2.50;;
71856;SDS011;63344;46.980;28.882;2023-04-23T11:16:15;3.33;;;2.17;;
71856;SDS011;63344;46.980;28.882;2023-04-23T11:19:12;5.78;;;2.60;;
71856;SDS011;63344;46.980;28.882;2023-04-23T11:22:32;4.15;;;2.50;;
71856;SDS011;63344;46.980;28.882;2023-04-23T11:25:13;6.47;;;3.40;;
71856;SDS011;63344;46.980;28.882;2023-04-23T11:27:48;8.60;;;2.85;;
71856;SDS011;63344;46.980;28.882;2023-04-23T11:30:18;4.25;;;3.00;;
71856;SDS011;63344;46.980;28.882;2023-04-23T11:32:54;4.85;;;3.03;;
71856;SDS011;63344;46.980;28.882;2023-04-23T11:35:23;5.75;;;3.10;;
71856;SDS011;63344;46.980;28.882;2023-04-23T11:38:08;6.20;;;3.03;;
71856;SDS011;63344;46.980;28.882;2023-04-23T11:40:40;4.00;;;2.60;;
71856;SDS011;63344;46.980;28.882;2023-04-23T11:43:08;4.20;;;2.95;;
71856;SDS011;63344;46.980;28.882;2023-04-23T11:45:51;7.35;;;2.65;;
71856;SDS011;63344;46.980;28.882;2023-04-23T11:48:37;5.70;;;2.75;;
71856;SDS011;63344;46.980;28.882;2023-04-23T11:51:08;4.50;;;2.40;;
71856;SDS011;63344;46.980;28.882;2023-04-23T11:53:46;6.25;;;3.22;;
71856;SDS011;63344;46.980;28.882;2023-04-23T11:56:30;7.35;;;3.83;;
71856;SDS011;63344;46.980;28.882;2023-04-23T11:58:58;5.63;;;2.90;;
71856;SDS011;63344;46.980;28.882;2023-04-23T12:06:21;4.82;;;2.40;;
71856;SDS011;63344;46.980;28.882;2023-04-23T12:10:02;5.10;;;2.55;;
71856;SDS011;63344;46.980;28.882;2023-04-23T12:12:33;5.78;;;3.08;;
71856;SDS011;63344;46.980;28.882;2023-04-23T12:15:04;3.35;;;2.67;;
71856;SDS011;63344;46.980;28.882;2023-04-23T12:17:33;5.97;;;2.75;;
71856;SDS011;63344;46.980;28.882;2023-04-23T12:20:04;3.95;;;2.63;;
71856;SDS011;63344;46.980;28.882;2023-04-23T12:22:35;5.88;;;2.83;;
71856;SDS011;63344;46.980;28.882;2023-04-23T12:25:04;5.57;;;2.75;;
71856;SDS011;63344;46.980;28.882;2023-04-23T12:27:38;5.70;;;2.90;;
71856;SDS011;63344;46.980;28.882;2023-04-23T12:30:07;6.80;;;2.88;;
71856;SDS011;63344;46.980;28.882;2023-04-23T12:32:36;5.38;;;3.25;;
71856;SDS011;63344;46.980;28.882;2023-04-23T12:35:05;4.55;;;2.75;;
71856;SDS011;63344;46.980;28.882;2023-04-23T12:37:36;5.60;;;2.90;;
71856;SDS011;63344;46.980;28.882;2023-04-23T12:40:03;6.25;;;3.20;;
71856;SDS011;63344;46.980;28.882;2023-04-23T12:42:35;5.85;;;2.85;;
71856;SDS011;63344;46.980;28.882;2023-04-23T12:45:04;5.88;;;3.22;;
71856;SDS011;63344;46.980;28.882;2023-04-23T12:47:33;4.47;;;2.72;;
71856;SDS011;63344;46.980;28.882;2023-04-23T12:50:00;5.45;;;2.80;;
71856;SDS011;63344;46.980;28.882;2023-04-23T12:52:30;4.15;;;2.83;;
71856;SDS011;63344;46.980;28.882;2023-04-23T12:54:57;4.72;;;2.90;;
71856;SDS011;63344;46.980;28.882;2023-04-23T12:57:26;7.47;;;2.97;;
71856;SDS011;63344;46.980;28.882;2023-04-23T12:59:55;4.68;;;2.70;;
71856;SDS011;63344;46.980;28.882;2023-04-23T13:02:23;4.95;;;2.72;;
71856;SDS011;63344;46.980;28.882;2023-04-23T13:04:52;4.75;;;2.90;;
71856;SDS011;63344;46.980;28.882;2023-04-23T13:07:30;5.47;;;2.50;;
71856;SDS011;63344;46.980;28.882;2023-04-23T13:10:00;4.60;;;2.30;;
71856;SDS011;63344;46.980;28.882;2023-04-23T13:12:28;4.10;;;2.50;;
71856;SDS011;63344;46.980;28.882;2023-04-23T13:15:08;5.10;;;3.40;;
71856;SDS011;63344;46.980;28.882;2023-04-23T13:17:38;4.47;;;2.35;;
71856;SDS011;63344;46.980;28.882;2023-04-23T13:20:06;3.28;;;2.13;;
71856;SDS011;63344;46.980;28.882;2023-04-23T13:22:36;4.45;;;2.63;;
71856;SDS011;63344;46.980;28.882;2023-04-23T13:25:05;4.43;;;3.03;;
71856;SDS011;63344;46.980;28.882;2023-04-23T13:27:36;3.65;;;2.55;;
71856;SDS011;63344;46.980;28.882;2023-04-23T13:30:03;2.75;;;2.30;;
71856;SDS011;63344;46.980;28.882;2023-04-23T13:34:59;3.03;;;2.17;;
71856;SDS011;63344;46.980;28.882;2023-04-23T13:37:29;3.33;;;1.98;;
71856;SDS011;63344;46.980;28.882;2023-04-23T13:39:57;4.45;;;2.10;;
71856;SDS011;63344;46.980;28.882;2023-04-23T13:42:24;3.63;;;2.80;;
71856;SDS011;63344;46.980;28.882;2023-04-23T13:44:52;3.97;;;2.50;;
71856;SDS011;63344;46.980;28.882;2023-04-23T13:47:22;3.65;;;2.22;;
71856;SDS011;63344;46.980;28.882;2023-04-23T13:49:56;4.25;;;2.30;;
71856;SDS011;63344;46.980;28.882;2023-04-23T13:52:26;3.53;;;2.35;;
71856;SDS011;63344;46.980;28.882;2023-04-23T13:54:55;3.67;;;2.22;;
71856;SDS011;63344;46.980;28.882;2023-04-23T13:57:31;3.03;;;1.90;;
71856;SDS011;63344;46.980;28.882;2023-04-23T14:00:03;2.72;;;1.60;;
71856;SDS011;63344;46.980;28.882;2023-04-23T14:02:33;2.70;;;2.25;;
71856;SDS011;63344;46.980;28.882;2023-04-23T14:05:08;4.35;;;2.45;;
71856;SDS011;63344;46.980;28.882;2023-04-23T14:07:37;3.40;;;2.03;;
71856;SDS011;63344;46.980;28.882;2023-04-23T14:10:06;2.80;;;1.95;;
71856;SDS011;63344;46.980;28.882;2023-04-23T14:12:36;3.08;;;2.30;;
71856;SDS011;63344;46.980;28.882;2023-04-23T14:15:07;3.63;;;2.03;;
71856;SDS011;63344;46.980;28.882;2023-04-23T14:17:38;5.88;;;2.20;;
71856;SDS011;63344;46.980;28.882;2023-04-23T14:20:06;3.28;;;2.40;;
71856;SDS011;63344;46.980;28.882;2023-04-23T14:22:34;3.72;;;2.20;;
71856;SDS011;63344;46.980;28.882;2023-04-23T14:25:03;3.85;;;2.30;;
71856;SDS011;63344;46.980;28.882;2023-04-23T14:27:40;4.45;;;2.25;;
71856;SDS011;63344;46.980;28.882;2023-04-23T14:30:15;3.35;;;2.30;;
71856;SDS011;63344;46.980;28.882;2023-04-23T14:32:46;4.32;;;2.65;;
71856;SDS011;63344;46.980;28.882;2023-04-23T14:35:16;5.10;;;2.65;;
71856;SDS011;63344;46.980;28.882;2023-04-23T14:37:55;6.05;;;3.17;;
71856;SDS011;63344;46.980;28.882;2023-04-23T14:40:22;4.78;;;2.40;;
71856;SDS011;63344;46.980;28.882;2023-04-23T14:42:50;2.70;;;2.10;;
71856;SDS011;63344;46.980;28.882;2023-04-23T14:45:19;4.10;;;2.42;;
71856;SDS011;63344;46.980;28.882;2023-04-23T14:47:47;3.22;;;2.10;;
71856;SDS011;63344;46.980;28.882;2023-04-23T14:50:16;3.42;;;2.15;;
71856;SDS011;63344;46.980;28.882;2023-04-23T14:52:47;6.78;;;2.63;;
71856;SDS011;63344;46.980;28.882;2023-04-23T14:55:15;3.53;;;2.22;;
71856;SDS011;63344;46.980;28.882;2023-04-23T14:57:45;4.00;;;2.47;;
71856;SDS011;63344;46.980;28.882;2023-04-23T15:00:12;3.75;;;2.35;;
71856;SDS011;63344;46.980;28.882;2023-04-23T15:02:41;3.40;;;1.90;;
71856;SDS011;63344;46.980;28.882;2023-04-23T15:05:11;5.38;;;2.42;;